sensor_id;sensor_type;location;lat;lon;timestamp;temperature;humidity
71175;DHT22;58876;51.994;4.472;2023-01-04T00:01:46;9.58;91.07
71175;DHT22;58876;51.994;4.472;2023-01-04T00:04:11;9.64;91.27
71175;DHT22;58876;51.994;4.472;2023-01-04T00:06:37;9.65;91.03
71175;DHT22;58876;51.994;4.472;2023-01-04T00:09:03;9.70;91.07
71175;DHT22;58876;51.994;4.472;2023-01-04T00:11:28;9.64;91.44
71175;DHT22;58876;51.994;4.472;2023-01-04T00:13:56;9.67;91.43
71175;DHT22;58876;51.994;4.472;2023-01-04T00:16:24;9.67;91.27
71175;DHT22;58876;51.994;4.472;2023-01-04T00:18:51;9.65;91.38
71175;DHT22;58876;51.994;4.472;2023-01-04T00:21:29;9.68;91.47
71175;DHT22;58876;51.994;4.472;2023-01-04T00:23:57;9.71;91.61
71175;DHT22;58876;51.994;4.472;2023-01-04T00:26:26;9.77;91.45
71175;DHT22;58876;51.994;4.472;2023-01-04T00:28:54;9.71;91.69
71175;DHT22;58876;51.994;4.472;2023-01-04T00:31:21;9.71;91.55
71175;DHT22;58876;51.994;4.472;2023-01-04T00:33:47;9.72;91.71
71175;DHT22;58876;51.994;4.472;2023-01-04T00:36:13;9.68;91.81
71175;DHT22;58876;51.994;4.472;2023-01-04T00:38:40;9.71;91.83
71175;DHT22;58876;51.994;4.472;2023-01-04T00:41:07;9.71;91.91
71175;DHT22;58876;51.994;4.472;2023-01-04T00:43:33;9.74;91.78
71175;DHT22;58876;51.994;4.472;2023-01-04T00:45:59;9.81;91.80
71175;DHT22;58876;51.994;4.472;2023-01-04T00:48:29;9.83;91.60
71175;DHT22;58876;51.994;4.472;2023-01-04T00:50:54;9.85;91.71
71175;DHT22;58876;51.994;4.472;2023-01-04T00:53:20;9.95;91.56
71175;DHT22;58876;51.994;4.472;2023-01-04T00:55:46;9.93;91.38
71175;DHT22;58876;51.994;4.472;2023-01-04T00:58:11;9.98;91.25
71175;DHT22;58876;51.994;4.472;2023-01-04T01:00:40;9.91;91.53
71175;DHT22;58876;51.994;4.472;2023-01-04T01:03:06;9.96;91.48
71175;DHT22;58876;51.994;4.472;2023-01-04T01:05:33;10.02;91.48
71175;DHT22;58876;51.994;4.472;2023-01-04T01:08:00;10.12;91.10
71175;DHT22;58876;51.994;4.472;2023-01-04T01:10:45;10.13;91.17
71175;DHT22;58876;51.994;4.472;2023-01-04T01:13:11;10.10;91.20
71175;DHT22;58876;51.994;4.472;2023-01-04T01:15:36;10.14;91.10
71175;DHT22;58876;51.994;4.472;2023-01-04T01:18:01;10.14;91.45
71175;DHT22;58876;51.994;4.472;2023-01-04T01:20:27;10.29;91.21
71175;DHT22;58876;51.994;4.472;2023-01-04T01:22:52;10.23;91.30
71175;DHT22;58876;51.994;4.472;2023-01-04T01:25:18;10.22;91.55
71175;DHT22;58876;51.994;4.472;2023-01-04T01:27:43;10.30;91.53
71175;DHT22;58876;51.994;4.472;2023-01-04T01:30:09;10.42;91.21
71175;DHT22;58876;51.994;4.472;2023-01-04T01:32:34;10.46;91.24
71175;DHT22;58876;51.994;4.472;2023-01-04T01:35:00;10.46;91.23
71175;DHT22;58876;51.994;4.472;2023-01-04T01:37:25;10.51;91.18
71175;DHT22;58876;51.994;4.472;2023-01-04T01:39:50;10.46;91.11
71175;DHT22;58876;51.994;4.472;2023-01-04T01:42:19;10.54;91.25
71175;DHT22;58876;51.994;4.472;2023-01-04T01:45:21;10.54;90.93
71175;DHT22;58876;51.994;4.472;2023-01-04T01:47:50;10.61;90.76
71175;DHT22;58876;51.994;4.472;2023-01-04T01:50:28;10.68;90.48
71175;DHT22;58876;51.994;4.472;2023-01-04T01:52:57;10.68;90.70
71175;DHT22;58876;51.994;4.472;2023-01-04T01:55:27;10.67;90.81
71175;DHT22;58876;51.994;4.472;2023-01-04T01:57:54;10.65;90.67
71175;DHT22;58876;51.994;4.472;2023-01-04T02:00:20;10.81;90.39
71175;DHT22;58876;51.994;4.472;2023-01-04T02:03:12;10.80;90.49
71175;DHT22;58876;51.994;4.472;2023-01-04T02:05:41;10.87;90.31
71175;DHT22;58876;51.994;4.472;2023-01-04T02:08:10;10.81;90.32
71175;DHT22;58876;51.994;4.472;2023-01-04T02:10:37;10.82;90.45
71175;DHT22;58876;51.994;4.472;2023-01-04T02:13:08;10.88;90.09
71175;DHT22;58876;51.994;4.472;2023-01-04T02:15:47;10.92;90.11
71175;DHT22;58876;51.994;4.472;2023-01-04T02:18:23;10.95;90.24
71175;DHT22;58876;51.994;4.472;2023-01-04T02:26:47;10.91;90.99
71175;DHT22;58876;51.994;4.472;2023-01-04T02:35:03;10.91;90.92
71175;DHT22;58876;51.994;4.472;2023-01-04T02:37:57;10.92;91.03
71175;DHT22;58876;51.994;4.472;2023-01-04T02:40:49;10.97;90.81
71175;DHT22;58876;51.994;4.472;2023-01-04T02:43:30;11.08;90.84
71175;DHT22;58876;51.994;4.472;2023-01-04T02:46:24;11.04;90.89
71175;DHT22;58876;51.994;4.472;2023-01-04T02:48:51;11.09;90.89
71175;DHT22;58876;51.994;4.472;2023-01-04T02:51:36;11.08;90.91
71175;DHT22;58876;51.994;4.472;2023-01-04T02:54:06;11.02;91.07
71175;DHT22;58876;51.994;4.472;2023-01-04T03:01:55;11.14;90.55
71175;DHT22;58876;51.994;4.472;2023-01-04T03:04:53;11.15;90.75
71175;DHT22;58876;51.994;4.472;2023-01-04T03:07:54;11.08;90.77
71175;DHT22;58876;51.994;4.472;2023-01-04T03:13:17;11.14;91.00
71175;DHT22;58876;51.994;4.472;2023-01-04T03:15:50;11.23;90.83
71175;DHT22;58876;51.994;4.472;2023-01-04T03:18:28;11.19;90.87
71175;DHT22;58876;51.994;4.472;2023-01-04T03:20:58;11.16;90.80
71175;DHT22;58876;51.994;4.472;2023-01-04T03:23:33;11.05;90.87
71175;DHT22;58876;51.994;4.472;2023-01-04T03:26:33;11.12;90.86
71175;DHT22;58876;51.994;4.472;2023-01-04T03:35:15;11.19;91.11
71175;DHT22;58876;51.994;4.472;2023-01-04T03:38:03;11.19;91.00
71175;DHT22;58876;51.994;4.472;2023-01-04T03:43:49;11.18;91.18
71175;DHT22;58876;51.994;4.472;2023-01-04T03:46:46;11.23;91.06
71175;DHT22;58876;51.994;4.472;2023-01-04T03:50:06;11.25;91.28
71175;DHT22;58876;51.994;4.472;2023-01-04T03:52:35;11.25;91.14
71175;DHT22;58876;51.994;4.472;2023-01-04T03:55:05;11.29;91.18
71175;DHT22;58876;51.994;4.472;2023-01-04T03:57:32;11.23;91.08
71175;DHT22;58876;51.994;4.472;2023-01-04T04:00:07;11.26;91.11
71175;DHT22;58876;51.994;4.472;2023-01-04T04:02:35;11.29;91.14
71175;DHT22;58876;51.994;4.472;2023-01-04T04:05:02;11.40;90.71
71175;DHT22;58876;51.994;4.472;2023-01-04T04:07:46;11.40;90.54
71175;DHT22;58876;51.994;4.472;2023-01-04T04:10:30;11.50;90.18
71175;DHT22;58876;51.994;4.472;2023-01-04T04:12:55;11.53;90.12
71175;DHT22;58876;51.994;4.472;2023-01-04T04:15:21;11.62;89.95
71175;DHT22;58876;51.994;4.472;2023-01-04T04:17:46;11.73;89.45
71175;DHT22;58876;51.994;4.472;2023-01-04T04:20:12;11.67;89.39
71175;DHT22;58876;51.994;4.472;2023-01-04T04:22:38;11.71;89.45
71175;DHT22;58876;51.994;4.472;2023-01-04T04:25:05;11.71;89.43
71175;DHT22;58876;51.994;4.472;2023-01-04T04:27:30;11.69;89.82
71175;DHT22;58876;51.994;4.472;2023-01-04T04:29:56;11.60;90.45
71175;DHT22;58876;51.994;4.472;2023-01-04T04:32:21;11.59;90.99
71175;DHT22;58876;51.994;4.472;2023-01-04T04:34:47;11.52;91.13
71175;DHT22;58876;51.994;4.472;2023-01-04T04:37:12;11.55;91.38
71175;DHT22;58876;51.994;4.472;2023-01-04T04:39:38;11.66;91.07
71175;DHT22;58876;51.994;4.472;2023-01-04T04:42:03;11.65;91.14
71175;DHT22;58876;51.994;4.472;2023-01-04T04:44:29;11.62;91.41
71175;DHT22;58876;51.994;4.472;2023-01-04T04:46:54;11.66;91.16
71175;DHT22;58876;51.994;4.472;2023-01-04T04:49:19;11.62;91.28
71175;DHT22;58876;51.994;4.472;2023-01-04T04:51:46;11.63;91.71
71175;DHT22;58876;51.994;4.472;2023-01-04T04:54:17;11.55;91.92
71175;DHT22;58876;51.994;4.472;2023-01-04T04:56:43;11.56;91.70
71175;DHT22;58876;51.994;4.472;2023-01-04T04:59:09;11.47;91.93
71175;DHT22;58876;51.994;4.472;2023-01-04T05:01:34;11.50;91.91
71175;DHT22;58876;51.994;4.472;2023-01-04T05:04:00;11.50;91.83
71175;DHT22;58876;51.994;4.472;2023-01-04T05:06:25;11.52;91.82
71175;DHT22;58876;51.994;4.472;2023-01-04T05:08:50;11.55;91.96
71175;DHT22;58876;51.994;4.472;2023-01-04T05:11:16;11.56;91.79
71175;DHT22;58876;51.994;4.472;2023-01-04T05:14:01;11.58;91.71
71175;DHT22;58876;51.994;4.472;2023-01-04T05:16:27;11.59;91.79
71175;DHT22;58876;51.994;4.472;2023-01-04T05:18:52;11.59;91.79
71175;DHT22;58876;51.994;4.472;2023-01-04T05:21:18;11.62;91.80
71175;DHT22;58876;51.994;4.472;2023-01-04T05:23:43;11.67;91.72
71175;DHT22;58876;51.994;4.472;2023-01-04T05:26:08;11.71;91.34
71175;DHT22;58876;51.994;4.472;2023-01-04T05:28:34;11.76;91.30
71175;DHT22;58876;51.994;4.472;2023-01-04T05:30:59;11.77;91.20
71175;DHT22;58876;51.994;4.472;2023-01-04T05:33:28;11.69;91.56
71175;DHT22;58876;51.994;4.472;2023-01-04T05:35:56;11.83;91.31
71175;DHT22;58876;51.994;4.472;2023-01-04T05:38:22;11.70;91.41
71175;DHT22;58876;51.994;4.472;2023-01-04T05:40:49;11.79;91.32
71175;DHT22;58876;51.994;4.472;2023-01-04T05:43:16;11.76;91.34
71175;DHT22;58876;51.994;4.472;2023-01-04T05:45:43;11.80;91.13
71175;DHT22;58876;51.994;4.472;2023-01-04T05:48:09;11.80;91.01
71175;DHT22;58876;51.994;4.472;2023-01-04T05:50:34;11.79;91.08
71175;DHT22;58876;51.994;4.472;2023-01-04T05:53:00;11.83;90.85
71175;DHT22;58876;51.994;4.472;2023-01-04T05:55:25;11.94;90.93
71175;DHT22;58876;51.994;4.472;2023-01-04T05:57:52;11.91;90.64
71175;DHT22;58876;51.994;4.472;2023-01-04T06:00:17;11.91;90.55
71175;DHT22;58876;51.994;4.472;2023-01-04T06:02:43;11.89;90.75
71175;DHT22;58876;51.994;4.472;2023-01-04T06:05:10;11.94;90.41
71175;DHT22;58876;51.994;4.472;2023-01-04T06:07:37;11.90;90.41
71175;DHT22;58876;51.994;4.472;2023-01-04T06:10:05;12.02;90.30
71175;DHT22;58876;51.994;4.472;2023-01-04T06:12:30;12.02;90.19
71175;DHT22;58876;51.994;4.472;2023-01-04T06:14:56;12.07;89.97
71175;DHT22;58876;51.994;4.472;2023-01-04T06:17:21;12.07;90.08
71175;DHT22;58876;51.994;4.472;2023-01-04T06:19:47;12.05;90.30
71175;DHT22;58876;51.994;4.472;2023-01-04T06:22:12;12.00;90.36
71175;DHT22;58876;51.994;4.472;2023-01-04T06:24:38;12.00;90.36
71175;DHT22;58876;51.994;4.472;2023-01-04T06:27:04;12.07;90.47
71175;DHT22;58876;51.994;4.472;2023-01-04T06:29:29;12.08;90.48
71175;DHT22;58876;51.994;4.472;2023-01-04T06:31:55;12.00;90.65
71175;DHT22;58876;51.994;4.472;2023-01-04T06:34:20;12.00;90.87
71175;DHT22;58876;51.994;4.472;2023-01-04T06:36:46;12.00;90.72
71175;DHT22;58876;51.994;4.472;2023-01-04T06:39:11;11.95;90.94
71175;DHT22;58876;51.994;4.472;2023-01-04T06:41:37;11.95;90.90
71175;DHT22;58876;51.994;4.472;2023-01-04T06:44:02;12.07;90.73
71175;DHT22;58876;51.994;4.472;2023-01-04T06:46:28;12.01;90.93
71175;DHT22;58876;51.994;4.472;2023-01-04T06:48:54;12.04;90.93
71175;DHT22;58876;51.994;4.472;2023-01-04T06:51:20;12.05;90.82
71175;DHT22;58876;51.994;4.472;2023-01-04T06:53:45;12.08;90.71
71175;DHT22;58876;51.994;4.472;2023-01-04T06:56:11;12.01;90.77
71175;DHT22;58876;51.994;4.472;2023-01-04T06:58:37;12.04;91.04
71175;DHT22;58876;51.994;4.472;2023-01-04T07:01:02;12.08;90.90
71175;DHT22;58876;51.994;4.472;2023-01-04T07:03:28;11.98;91.26
71175;DHT22;58876;51.994;4.472;2023-01-04T07:05:54;11.98;91.57
71175;DHT22;58876;51.994;4.472;2023-01-04T07:08:19;11.98;91.39
71175;DHT22;58876;51.994;4.472;2023-01-04T07:10:45;12.04;91.02
71175;DHT22;58876;51.994;4.472;2023-01-04T07:13:10;12.04;91.04
71175;DHT22;58876;51.994;4.472;2023-01-04T07:15:36;12.14;91.03
71175;DHT22;58876;51.994;4.472;2023-01-04T07:18:01;12.10;91.15
71175;DHT22;58876;51.994;4.472;2023-01-04T07:20:27;11.94;91.48
71175;DHT22;58876;51.994;4.472;2023-01-04T07:22:52;11.98;91.70
71175;DHT22;58876;51.994;4.472;2023-01-04T07:25:18;11.97;91.73
71175;DHT22;58876;51.994;4.472;2023-01-04T07:27:49;11.95;91.90
71175;DHT22;58876;51.994;4.472;2023-01-04T07:30:15;12.04;91.74
71175;DHT22;58876;51.994;4.472;2023-01-04T07:32:40;12.00;91.63
71175;DHT22;58876;51.994;4.472;2023-01-04T07:35:06;12.05;91.37
71175;DHT22;58876;51.994;4.472;2023-01-04T07:37:31;12.02;91.51
71175;DHT22;58876;51.994;4.472;2023-01-04T07:39:57;12.07;91.51
71175;DHT22;58876;51.994;4.472;2023-01-04T07:42:22;12.00;91.56
71175;DHT22;58876;51.994;4.472;2023-01-04T07:44:47;12.02;91.66
71175;DHT22;58876;51.994;4.472;2023-01-04T07:47:13;12.04;91.60
71175;DHT22;58876;51.994;4.472;2023-01-04T07:49:38;11.91;92.23
71175;DHT22;58876;51.994;4.472;2023-01-04T07:52:04;11.91;92.24
71175;DHT22;58876;51.994;4.472;2023-01-04T07:54:29;11.94;92.26
71175;DHT22;58876;51.994;4.472;2023-01-04T07:56:55;12.01;92.29
71175;DHT22;58876;51.994;4.472;2023-01-04T07:59:20;12.05;92.25
71175;DHT22;58876;51.994;4.472;2023-01-04T08:01:47;12.00;92.53
71175;DHT22;58876;51.994;4.472;2023-01-04T08:04:14;12.04;92.44
71175;DHT22;58876;51.994;4.472;2023-01-04T08:06:41;12.01;92.50
71175;DHT22;58876;51.994;4.472;2023-01-04T08:09:07;12.05;92.29
71175;DHT22;58876;51.994;4.472;2023-01-04T08:11:34;12.13;92.38
71175;DHT22;58876;51.994;4.472;2023-01-04T08:14:00;12.14;92.29
71175;DHT22;58876;51.994;4.472;2023-01-04T08:16:28;12.17;92.36
71175;DHT22;58876;51.994;4.472;2023-01-04T08:18:59;12.16;92.36
71175;DHT22;58876;51.994;4.472;2023-01-04T08:21:28;12.13;92.37
71175;DHT22;58876;51.994;4.472;2023-01-04T08:23:54;12.16;92.48
71175;DHT22;58876;51.994;4.472;2023-01-04T08:26:20;12.13;92.54
71175;DHT22;58876;51.994;4.472;2023-01-04T08:28:46;12.10;92.55
71175;DHT22;58876;51.994;4.472;2023-01-04T08:31:19;12.16;92.32
71175;DHT22;58876;51.994;4.472;2023-01-04T08:33:45;12.18;92.28
71175;DHT22;58876;51.994;4.472;2023-01-04T08:36:17;12.18;92.11
71175;DHT22;58876;51.994;4.472;2023-01-04T08:38:46;12.16;92.13
71175;DHT22;58876;51.994;4.472;2023-01-04T08:41:16;12.16;92.30
71175;DHT22;58876;51.994;4.472;2023-01-04T08:43:43;12.24;92.19
71175;DHT22;58876;51.994;4.472;2023-01-04T08:46:09;12.25;92.16
71175;DHT22;58876;51.994;4.472;2023-01-04T08:48:35;12.20;92.21
71175;DHT22;58876;51.994;4.472;2023-01-04T08:51:06;12.25;92.41
71175;DHT22;58876;51.994;4.472;2023-01-04T08:53:43;12.16;92.46
71175;DHT22;58876;51.994;4.472;2023-01-04T08:56:11;12.13;92.59
71175;DHT22;58876;51.994;4.472;2023-01-04T08:58:37;12.22;92.64
71175;DHT22;58876;51.994;4.472;2023-01-04T09:01:04;12.14;92.76
71175;DHT22;58876;51.994;4.472;2023-01-04T09:03:30;12.18;92.74
71175;DHT22;58876;51.994;4.472;2023-01-04T09:06:04;12.14;92.80
71175;DHT22;58876;51.994;4.472;2023-01-04T09:08:32;12.17;92.83
71175;DHT22;58876;51.994;4.472;2023-01-04T09:11:14;12.14;92.89
71175;DHT22;58876;51.994;4.472;2023-01-04T09:13:41;12.16;92.72
71175;DHT22;58876;51.994;4.472;2023-01-04T09:16:18;12.18;92.59
71175;DHT22;58876;51.994;4.472;2023-01-04T09:18:44;12.24;92.52
71175;DHT22;58876;51.994;4.472;2023-01-04T09:21:14;12.21;92.43
71175;DHT22;58876;51.994;4.472;2023-01-04T09:23:41;12.24;92.41
71175;DHT22;58876;51.994;4.472;2023-01-04T09:26:12;12.21;92.62
71175;DHT22;58876;51.994;4.472;2023-01-04T09:28:38;12.24;92.53
71175;DHT22;58876;51.994;4.472;2023-01-04T09:31:16;12.27;92.34
71175;DHT22;58876;51.994;4.472;2023-01-04T09:33:52;12.27;92.31
71175;DHT22;58876;51.994;4.472;2023-01-04T09:36:27;12.25;92.39
71175;DHT22;58876;51.994;4.472;2023-01-04T09:38:54;12.25;92.31
71175;DHT22;58876;51.994;4.472;2023-01-04T09:41:25;12.27;92.24
71175;DHT22;58876;51.994;4.472;2023-01-04T09:44:02;12.29;91.87
71175;DHT22;58876;51.994;4.472;2023-01-04T09:46:54;12.35;91.81
71175;DHT22;58876;51.994;4.472;2023-01-04T09:50:03;12.35;91.88
71175;DHT22;58876;51.994;4.472;2023-01-04T09:55:36;12.29;91.87
71175;DHT22;58876;51.994;4.472;2023-01-04T09:58:11;12.35;91.43
71175;DHT22;58876;51.994;4.472;2023-01-04T10:00:45;12.39;91.37
71175;DHT22;58876;51.994;4.472;2023-01-04T10:03:28;12.41;91.11
71175;DHT22;58876;51.994;4.472;2023-01-04T10:05:57;12.45;91.04
71175;DHT22;58876;51.994;4.472;2023-01-04T10:08:22;12.50;91.00
71175;DHT22;58876;51.994;4.472;2023-01-04T10:11:33;12.45;91.26
71175;DHT22;58876;51.994;4.472;2023-01-04T10:17:51;12.45;91.30
71175;DHT22;58876;51.994;4.472;2023-01-04T10:24:01;12.53;91.57
71175;DHT22;58876;51.994;4.472;2023-01-04T10:26:10;12.46;91.54
71175;DHT22;58876;51.994;4.472;2023-01-04T10:31:38;12.45;91.69
71175;DHT22;58876;51.994;4.472;2023-01-04T10:34:25;12.45;91.53
71175;DHT22;58876;51.994;4.472;2023-01-04T10:36:57;12.46;91.59
71175;DHT22;58876;51.994;4.472;2023-01-04T10:39:28;12.49;91.49
71175;DHT22;58876;51.994;4.472;2023-01-04T10:42:05;12.55;91.40
71175;DHT22;58876;51.994;4.472;2023-01-04T10:44:43;12.59;90.97
71175;DHT22;58876;51.994;4.472;2023-01-04T10:50:38;12.70;90.42
71175;DHT22;58876;51.994;4.472;2023-01-04T10:59:19;12.63;90.44
71175;DHT22;58876;51.994;4.472;2023-01-04T11:02:13;12.62;90.18
71175;DHT22;58876;51.994;4.472;2023-01-04T11:07:30;12.83;89.66
71175;DHT22;58876;51.994;4.472;2023-01-04T11:10:10;12.87;89.51
71175;DHT22;58876;51.994;4.472;2023-01-04T11:12:37;12.83;89.79
71175;DHT22;58876;51.994;4.472;2023-01-04T11:15:06;12.85;89.37
71175;DHT22;58876;51.994;4.472;2023-01-04T11:17:33;12.90;89.24
71175;DHT22;58876;51.994;4.472;2023-01-04T11:19:59;12.89;89.15
71175;DHT22;58876;51.994;4.472;2023-01-04T11:25:03;12.89;89.30
71175;DHT22;58876;51.994;4.472;2023-01-04T11:27:41;12.92;88.95
71175;DHT22;58876;51.994;4.472;2023-01-04T11:30:21;12.95;88.76
71175;DHT22;58876;51.994;4.472;2023-01-04T11:33:00;13.00;88.91
71175;DHT22;58876;51.994;4.472;2023-01-04T11:35:54;12.86;88.70
71175;DHT22;58876;51.994;4.472;2023-01-04T11:38:29;12.90;88.79
71175;DHT22;58876;51.994;4.472;2023-01-04T11:41:01;12.76;89.00
71175;DHT22;58876;51.994;4.472;2023-01-04T11:43:32;12.73;88.91
71175;DHT22;58876;51.994;4.472;2023-01-04T11:46:07;12.75;89.27
71175;DHT22;58876;51.994;4.472;2023-01-04T11:48:46;12.80;88.92
71175;DHT22;58876;51.994;4.472;2023-01-04T11:54:17;12.87;88.76
71175;DHT22;58876;51.994;4.472;2023-01-04T11:57:08;12.90;88.18
71175;DHT22;58876;51.994;4.472;2023-01-04T11:59:41;12.93;88.15
71175;DHT22;58876;51.994;4.472;2023-01-04T12:04:43;12.87;88.01
71175;DHT22;58876;51.994;4.472;2023-01-04T12:09:51;12.93;87.92
71175;DHT22;58876;51.994;4.472;2023-01-04T12:12:17;12.92;87.63
71175;DHT22;58876;51.994;4.472;2023-01-04T12:14:47;12.80;87.77
71175;DHT22;58876;51.994;4.472;2023-01-04T12:17:37;12.76;88.39
71175;DHT22;58876;51.994;4.472;2023-01-04T12:20:15;12.80;88.35
71175;DHT22;58876;51.994;4.472;2023-01-04T12:22:41;12.69;88.30
71175;DHT22;58876;51.994;4.472;2023-01-04T12:27:51;12.82;88.10
71175;DHT22;58876;51.994;4.472;2023-01-04T12:36:09;12.76;88.54
71175;DHT22;58876;51.994;4.472;2023-01-04T12:41:21;12.73;88.78
71175;DHT22;58876;51.994;4.472;2023-01-04T12:43:47;12.89;88.31
71175;DHT22;58876;51.994;4.472;2023-01-04T12:54:57;12.99;87.70
71175;DHT22;58876;51.994;4.472;2023-01-04T12:57:35;12.89;87.64
71175;DHT22;58876;51.994;4.472;2023-01-04T13:02:34;12.78;87.95
71175;DHT22;58876;51.994;4.472;2023-01-04T13:05:26;12.70;88.15
71175;DHT22;58876;51.994;4.472;2023-01-04T13:07:54;12.69;88.19
71175;DHT22;58876;51.994;4.472;2023-01-04T13:21:11;12.83;87.45
71175;DHT22;58876;51.994;4.472;2023-01-04T13:23:38;13.00;87.40
71175;DHT22;58876;51.994;4.472;2023-01-04T13:31:44;12.89;87.24
71175;DHT22;58876;51.994;4.472;2023-01-04T13:34:37;13.02;86.63
71175;DHT22;58876;51.994;4.472;2023-01-04T13:39:37;12.87;86.29
71175;DHT22;58876;51.994;4.472;2023-01-04T13:42:04;13.03;86.63
71175;DHT22;58876;51.994;4.472;2023-01-04T13:47:34;12.92;86.24
71175;DHT22;58876;51.994;4.472;2023-01-04T13:50:02;12.93;86.15
71175;DHT22;58876;51.994;4.472;2023-01-04T13:52:28;12.99;86.05
71175;DHT22;58876;51.994;4.472;2023-01-04T13:55:25;13.00;85.27
71175;DHT22;58876;51.994;4.472;2023-01-04T13:58:02;13.00;85.36
71175;DHT22;58876;51.994;4.472;2023-01-04T14:00:50;13.04;85.37
71175;DHT22;58876;51.994;4.472;2023-01-04T14:03:35;13.09;84.69
71175;DHT22;58876;51.994;4.472;2023-01-04T14:11:16;13.10;83.98
71175;DHT22;58876;51.994;4.472;2023-01-04T14:14:23;13.14;84.03
71175;DHT22;58876;51.994;4.472;2023-01-04T14:17:11;13.24;84.05
71175;DHT22;58876;51.994;4.472;2023-01-04T14:19:46;13.11;84.14
71175;DHT22;58876;51.994;4.472;2023-01-04T14:30:49;13.03;84.42
71175;DHT22;58876;51.994;4.472;2023-01-04T14:38:55;12.93;84.01
71175;DHT22;58876;51.994;4.472;2023-01-04T14:46:31;13.00;83.81
71175;DHT22;58876;51.994;4.472;2023-01-04T14:48:59;13.10;83.81
71175;DHT22;58876;51.994;4.472;2023-01-04T14:51:35;12.89;84.05
71175;DHT22;58876;51.994;4.472;2023-01-04T14:54:06;12.96;84.09
71175;DHT22;58876;51.994;4.472;2023-01-04T14:56:32;13.03;83.80
71175;DHT22;58876;51.994;4.472;2023-01-04T14:58:58;13.00;83.79
71175;DHT22;58876;51.994;4.472;2023-01-04T15:01:24;13.00;83.62
71175;DHT22;58876;51.994;4.472;2023-01-04T15:03:50;12.92;84.02
71175;DHT22;58876;51.994;4.472;2023-01-04T15:06:17;12.92;84.22
71175;DHT22;58876;51.994;4.472;2023-01-04T15:08:43;12.95;84.21
71175;DHT22;58876;51.994;4.472;2023-01-04T15:11:11;12.79;84.55
71175;DHT22;58876;51.994;4.472;2023-01-04T15:13:37;12.85;84.66
71175;DHT22;58876;51.994;4.472;2023-01-04T15:16:03;12.83;84.38
71175;DHT22;58876;51.994;4.472;2023-01-04T15:18:29;12.82;84.14
71175;DHT22;58876;51.994;4.472;2023-01-04T15:20:55;12.85;84.11
71175;DHT22;58876;51.994;4.472;2023-01-04T15:23:20;12.82;84.06
71175;DHT22;58876;51.994;4.472;2023-01-04T15:25:46;12.75;83.91
71175;DHT22;58876;51.994;4.472;2023-01-04T15:28:15;12.79;83.67
71175;DHT22;58876;51.994;4.472;2023-01-04T15:30:42;12.86;83.56
71175;DHT22;58876;51.994;4.472;2023-01-04T15:33:08;12.78;83.50
71175;DHT22;58876;51.994;4.472;2023-01-04T15:35:34;12.82;83.51
71175;DHT22;58876;51.994;4.472;2023-01-04T15:38:00;12.76;83.70
71175;DHT22;58876;51.994;4.472;2023-01-04T15:40:25;12.69;83.88
71175;DHT22;58876;51.994;4.472;2023-01-04T15:42:50;12.79;84.07
71175;DHT22;58876;51.994;4.472;2023-01-04T15:45:29;12.80;83.75
71175;DHT22;58876;51.994;4.472;2023-01-04T15:47:55;12.87;83.31
71175;DHT22;58876;51.994;4.472;2023-01-04T15:50:23;12.76;83.64
71175;DHT22;58876;51.994;4.472;2023-01-04T15:52:48;12.70;84.04
71175;DHT22;58876;51.994;4.472;2023-01-04T15:55:14;12.68;84.21
71175;DHT22;58876;51.994;4.472;2023-01-04T15:57:40;12.59;84.48
71175;DHT22;58876;51.994;4.472;2023-01-04T16:00:05;12.56;84.27
71175;DHT22;58876;51.994;4.472;2023-01-04T16:02:40;12.48;84.80
71175;DHT22;58876;51.994;4.472;2023-01-04T16:05:08;12.48;84.68
71175;DHT22;58876;51.994;4.472;2023-01-04T16:07:34;12.41;85.17
71175;DHT22;58876;51.994;4.472;2023-01-04T16:10:00;12.46;84.89
71175;DHT22;58876;51.994;4.472;2023-01-04T16:12:25;12.50;84.71
71175;DHT22;58876;51.994;4.472;2023-01-04T16:15:07;12.53;84.49
71175;DHT22;58876;51.994;4.472;2023-01-04T16:17:32;12.50;84.13
71175;DHT22;58876;51.994;4.472;2023-01-04T16:19:58;12.60;84.09
71175;DHT22;58876;51.994;4.472;2023-01-04T16:22:23;12.60;83.61
71175;DHT22;58876;51.994;4.472;2023-01-04T16:24:49;12.59;83.45
71175;DHT22;58876;51.994;4.472;2023-01-04T16:27:14;12.65;83.35
71175;DHT22;58876;51.994;4.472;2023-01-04T16:29:40;12.66;83.06
71175;DHT22;58876;51.994;4.472;2023-01-04T16:32:06;12.55;83.55
71175;DHT22;58876;51.994;4.472;2023-01-04T16:34:31;12.53;83.39
71175;DHT22;58876;51.994;4.472;2023-01-04T16:36:57;12.59;83.18
71175;DHT22;58876;51.994;4.472;2023-01-04T16:39:22;12.60;83.24
71175;DHT22;58876;51.994;4.472;2023-01-04T16:41:48;12.52;83.07
71175;DHT22;58876;51.994;4.472;2023-01-04T16:44:14;12.52;83.20
71175;DHT22;58876;51.994;4.472;2023-01-04T16:46:40;12.45;83.01
71175;DHT22;58876;51.994;4.472;2023-01-04T16:49:16;12.46;83.32
71175;DHT22;58876;51.994;4.472;2023-01-04T16:51:44;12.53;82.87
71175;DHT22;58876;51.994;4.472;2023-01-04T16:54:15;12.48;83.09
71175;DHT22;58876;51.994;4.472;2023-01-04T16:56:43;12.44;82.97
71175;DHT22;58876;51.994;4.472;2023-01-04T16:59:13;12.50;82.73
71175;DHT22;58876;51.994;4.472;2023-01-04T17:01:41;12.53;82.68
71175;DHT22;58876;51.994;4.472;2023-01-04T17:04:08;12.55;82.53
71175;DHT22;58876;51.994;4.472;2023-01-04T17:06:41;12.55;82.59
71175;DHT22;58876;51.994;4.472;2023-01-04T17:09:15;12.48;82.98
71175;DHT22;58876;51.994;4.472;2023-01-04T17:11:52;12.38;83.10
71175;DHT22;58876;51.994;4.472;2023-01-04T17:14:28;12.34;83.11
71175;DHT22;58876;51.994;4.472;2023-01-04T17:16:55;12.46;82.98
71175;DHT22;58876;51.994;4.472;2023-01-04T17:19:21;12.52;82.52
71175;DHT22;58876;51.994;4.472;2023-01-04T17:21:48;12.48;82.31
71175;DHT22;58876;51.994;4.472;2023-01-04T17:24:13;12.56;81.69
71175;DHT22;58876;51.994;4.472;2023-01-04T17:26:40;12.56;81.67
71175;DHT22;58876;51.994;4.472;2023-01-04T17:29:11;12.66;81.67
71175;DHT22;58876;51.994;4.472;2023-01-04T17:31:42;12.52;81.67
71175;DHT22;58876;51.994;4.472;2023-01-04T17:34:11;12.52;81.97
71175;DHT22;58876;51.994;4.472;2023-01-04T17:36:38;12.48;82.25
71175;DHT22;58876;51.994;4.472;2023-01-04T17:39:04;12.52;82.37
71175;DHT22;58876;51.994;4.472;2023-01-04T17:41:33;12.55;82.70
71175;DHT22;58876;51.994;4.472;2023-01-04T17:44:01;12.48;82.91
71175;DHT22;58876;51.994;4.472;2023-01-04T17:46:30;12.53;82.84
71175;DHT22;58876;51.994;4.472;2023-01-04T17:48:57;12.35;83.25
71175;DHT22;58876;51.994;4.472;2023-01-04T17:51:23;12.45;83.18
71175;DHT22;58876;51.994;4.472;2023-01-04T17:53:56;12.41;83.19
71175;DHT22;58876;51.994;4.472;2023-01-04T17:56:23;12.45;83.16
71175;DHT22;58876;51.994;4.472;2023-01-04T17:58:48;12.38;83.55
71175;DHT22;58876;51.994;4.472;2023-01-04T18:01:16;12.37;83.73
71175;DHT22;58876;51.994;4.472;2023-01-04T18:03:45;12.34;83.76
71175;DHT22;58876;51.994;4.472;2023-01-04T18:06:14;12.37;83.81